createdAt,value
2023-05-17T00:03:08.265Z,28.37533
2023-05-17T00:08:09.895Z,27.29496
2023-05-17T00:13:11.332Z,26.93791
2023-05-17T00:18:12.771Z,26.64599
2023-05-17T00:23:14.373Z,26.83309
2023-05-17T00:28:15.790Z,26.37852
2023-05-17T00:33:17.311Z,26.54338
2023-05-17T00:38:18.716Z,27.20252
2023-05-17T00:43:20.140Z,26.95475
2023-05-17T00:48:21.693Z,27.26796
2023-05-17T00:53:23.238Z,26.84357
2023-05-17T00:58:24.638Z,26.75304
2023-05-17T01:03:26.121Z,26.44745
2023-05-17T01:08:27.773Z,26.71079
2023-05-17T01:13:29.188Z,26.67394
2023-05-17T01:18:30.670Z,26.09295
2023-05-17T01:23:32.052Z,26.05769
2023-05-17T01:28:33.497Z,26.01861
2023-05-17T01:33:35.059Z,26.04435
2023-05-17T01:38:36.772Z,25.96779
2023-05-17T01:43:38.146Z,25.63489
2023-05-17T01:48:39.548Z,25.42937
2023-05-17T01:53:40.959Z,24.84489
2023-05-17T01:58:42.364Z,24.50881
2023-05-17T02:03:43.898Z,24.53295
2023-05-17T02:08:45.422Z,24.64477
2023-05-17T02:13:46.934Z,24.43988
2023-05-17T02:18:48.398Z,24.37985
2023-05-17T02:23:49.877Z,24.39128
2023-05-17T02:28:51.349Z,24.67177
2023-05-17T02:33:52.868Z,24.46339
2023-05-17T02:38:54.411Z,24.38715
2023-05-17T02:43:55.887Z,24.18449
2023-05-17T02:48:57.260Z,23.53649
2023-05-17T02:53:58.666Z,23.88781
2023-05-17T02:59:00.077Z,23.96246
2023-05-17T03:04:01.718Z,24.12668
2023-05-17T03:09:03.316Z,23.75313
2023-05-17T03:14:04.742Z,23.7112
2023-05-17T03:19:06.250Z,23.14293
2023-05-17T03:24:07.897Z,23.01682
2023-05-17T03:29:09.304Z,22.65566
2023-05-17T03:34:10.723Z,22.83799
2023-05-17T03:39:12.119Z,22.13473
2023-05-17T03:44:13.500Z,22.06739
2023-05-17T03:49:14.916Z,21.97082
2023-05-17T03:54:16.495Z,21.32157
2023-05-17T03:59:17.851Z,22.02578
2023-05-17T04:04:19.428Z,21.92604
2023-05-17T04:09:20.884Z,19.91254
2023-05-17T04:14:22.302Z,20.9439
2023-05-17T04:19:23.740Z,20.77809
2023-05-17T04:24:25.369Z,20.27083
2023-05-17T04:29:26.769Z,20.1352
2023-05-17T04:34:28.166Z,20.28639
2023-05-17T04:39:30.923Z,20.06722
2023-05-17T04:44:32.442Z,19.99957
2023-05-17T04:49:33.956Z,19.85473
2023-05-17T04:54:35.375Z,19.69655
2023-05-17T04:59:36.820Z,19.70226
2023-05-17T05:04:38.366Z,19.65875
2023-05-17T05:09:39.784Z,19.74832
2023-05-17T05:14:41.197Z,19.86997
2023-05-17T05:19:42.602Z,19.42243
2023-05-17T05:24:44.045Z,19.66859
2023-05-17T05:29:45.463Z,19.21502
2023-05-17T05:34:46.855Z,18.92851
2023-05-17T05:39:48.244Z,19.0832
2023-05-17T05:44:49.709Z,19.0851
2023-05-17T05:49:51.141Z,19.05461
2023-05-17T05:54:52.542Z,18.70776
2023-05-17T05:59:54.186Z,18.86245
2023-05-17T06:04:55.642Z,18.53497
2023-05-17T06:09:57.104Z,18.67123
2023-05-17T06:14:58.498Z,18.05599
2023-05-17T06:19:59.961Z,18.26181
2023-05-17T06:25:01.396Z,18.14302
2023-05-17T06:30:05.556Z,18.18463
2023-05-17T06:35:08.525Z,18.04614
2023-05-17T06:40:16.079Z,18.11729
2023-05-17T06:45:18.402Z,18.0328
2023-05-17T06:50:19.806Z,16.68734
2023-05-17T06:55:21.241Z,17.84889
2023-05-17T07:00:22.607Z,18.07346
2023-05-17T07:05:24.155Z,17.74313
2023-05-17T07:10:26.743Z,17.82793
2023-05-17T07:15:28.494Z,17.86541
2023-05-17T07:20:30.124Z,17.51094
2023-05-17T07:25:31.551Z,17.41025
2023-05-17T07:30:32.991Z,17.49315
2023-05-17T07:35:34.485Z,17.01068
2023-05-17T07:40:35.889Z,16.9316
2023-05-17T07:45:37.318Z,17.32545
2023-05-17T07:50:38.718Z,16.67083
2023-05-17T07:55:40.083Z,17.09994
2023-05-17T08:00:41.507Z,16.50693
2023-05-17T08:05:42.945Z,16.02542
2023-05-17T08:10:45.161Z,15.67763
2023-05-17T08:15:46.568Z,16.55807
2023-05-17T08:20:48.096Z,15.71987
2023-05-17T08:25:49.493Z,15.50103
2023-05-17T08:30:50.850Z,15.36382
2023-05-17T08:35:52.418Z,15.52009
2023-05-17T08:40:53.833Z,15.59791
2023-05-17T08:45:55.238Z,15.61728
2023-05-17T08:50:56.743Z,15.74782
2023-05-17T08:55:58.168Z,13.71858
2023-05-17T09:00:59.562Z,14.19087
2023-05-17T09:06:01.369Z,15.30475
2023-05-17T09:11:02.874Z,14.80768
2023-05-17T09:16:04.295Z,15.1218
2023-05-17T09:21:05.685Z,15.58647
2023-05-17T09:26:07.081Z,15.39273
2023-05-17T09:31:08.598Z,15.63189
2023-05-17T09:36:09.974Z,15.15102
2023-05-17T09:41:11.506Z,14.47513
2023-05-17T09:46:12.940Z,15.21486
2023-05-17T09:51:14.327Z,15.27553
2023-05-17T09:56:15.686Z,14.48053
2023-05-17T10:01:17.289Z,14.87851
2023-05-17T10:06:32.815Z,15.11735
2023-05-17T10:11:45.456Z,15.18659
2023-05-17T10:16:46.882Z,15.33016
2023-05-17T10:21:48.230Z,14.70604
2023-05-17T10:26:49.654Z,14.85024
2023-05-17T10:31:51.050Z,14.35762
2023-05-17T10:36:52.517Z,14.58566
2023-05-17T10:42:00.443Z,14.12989
2023-05-17T10:47:08.539Z,14.34142
2023-05-17T10:52:09.931Z,14.61806
2023-05-17T10:57:11.366Z,14.68825
2023-05-17T11:02:12.884Z,14.54977
2023-05-17T11:07:14.659Z,13.67157
2023-05-17T11:12:16.057Z,12.49991
2023-05-17T11:17:17.426Z,14.11782
2023-05-17T11:22:18.851Z,14.12798
2023-05-17T11:27:20.294Z,14.73018
2023-05-17T11:32:21.695Z,14.82673
2023-05-17T11:37:23.109Z,14.65808
2023-05-17T11:42:24.524Z,14.30331
2023-05-17T11:47:26.051Z,14.58884
2023-05-17T11:52:29.170Z,14.8496
2023-05-17T11:57:30.731Z,14.3951
2023-05-17T12:02:32.213Z,13.63695
2023-05-17T12:07:33.791Z,14.48752
2023-05-17T12:12:35.198Z,14.5809
2023-05-17T12:17:36.722Z,14.75209
2023-05-17T12:22:38.144Z,13.62076
2023-05-17T12:27:39.639Z,13.96918
2023-05-17T12:32:41.153Z,14.22295
2023-05-17T12:37:42.604Z,14.30553
2023-05-17T12:42:43.995Z,13.72239
2023-05-17T12:47:45.380Z,13.9155
2023-05-17T12:52:46.902Z,13.95107
2023-05-17T12:57:48.312Z,13.77003
2023-05-17T13:02:49.736Z,13.04938
2023-05-17T13:07:51.192Z,12.89978
2023-05-17T13:12:52.615Z,12.73113
2023-05-17T13:17:54.114Z,13.46989
2023-05-17T13:22:55.513Z,13.10845
2023-05-17T13:27:56.987Z,14.01205
2023-05-17T13:32:58.523Z,14.5431
2023-05-17T13:38:00.067Z,14.56947
2023-05-17T13:43:01.956Z,14.91408
2023-05-17T13:48:03.457Z,13.61885
2023-05-17T13:53:04.942Z,13.38382
2023-05-17T13:58:06.347Z,14.56502
2023-05-17T14:03:07.882Z,14.63013
2023-05-17T14:08:09.440Z,15.03858
2023-05-17T14:13:10.831Z,15.35588
2023-05-17T14:18:12.377Z,15.36605
2023-05-17T14:23:13.865Z,15.94919
2023-05-17T14:28:15.330Z,15.72972
2023-05-17T14:33:16.800Z,14.59487
2023-05-17T14:38:18.341Z,15.49627
2023-05-17T14:43:19.748Z,15.2949
2023-05-17T14:48:21.248Z,14.64728
2023-05-17T14:53:22.707Z,16.63811
2023-05-17T14:58:24.110Z,15.42099
2023-05-17T15:03:25.619Z,15.99842
2023-05-17T15:08:27.046Z,16.8849
2023-05-17T15:13:28.471Z,18.33613
2023-05-17T15:18:29.880Z,17.96229
2023-05-17T15:23:31.275Z,18.95456
2023-05-17T15:28:32.707Z,18.8958
2023-05-17T15:33:34.176Z,18.90151
2023-05-17T15:38:35.724Z,18.26784
2023-05-17T15:43:37.352Z,18.14746
2023-05-17T15:48:38.840Z,18.01057
2023-05-17T15:53:40.327Z,19.52344
2023-05-17T15:58:41.749Z,19.82963
2023-05-17T16:03:43.240Z,21.27424
2023-05-17T16:08:44.690Z,21.59601
2023-05-17T16:13:46.072Z,20.86354
2023-05-17T16:18:47.697Z,20.40868
2023-05-17T16:23:49.180Z,21.38478
2023-05-17T16:28:50.609Z,20.47443
2023-05-17T16:33:52.067Z,21.26694
2023-05-17T16:38:53.472Z,20.57131
2023-05-17T16:43:54.885Z,22.76684
2023-05-17T16:48:56.311Z,21.21453
2023-05-17T16:53:57.724Z,21.49119
2023-05-17T16:58:59.075Z,21.51184
2023-05-17T17:04:00.566Z,23.27348
2023-05-17T17:09:02.052Z,21.80629
2023-05-17T17:14:03.517Z,21.75229
2023-05-17T17:19:05.088Z,23.77854
2023-05-17T17:24:06.577Z,22.92344
2023-05-17T17:29:08.032Z,24.55964
2023-05-17T17:34:09.433Z,24.77437
2023-05-17T17:39:10.900Z,24.07808
2023-05-17T17:44:12.254Z,25.18033
2023-05-17T17:49:13.738Z,25.71875
2023-05-17T17:54:15.226Z,25.4065
2023-05-17T17:59:16.645Z,25.70985
2023-05-17T18:04:18.050Z,25.87853
2023-05-17T18:09:19.625Z,26.06277
2023-05-17T18:14:20.981Z,26.80386
2023-05-17T18:19:22.394Z,27.43219
2023-05-17T18:24:23.836Z,26.4106
2023-05-17T18:29:25.213Z,27.04433
2023-05-17T18:34:26.727Z,26.70666
2023-05-17T18:39:28.138Z,26.2378
2023-05-17T18:44:29.562Z,25.37854
2023-05-17T18:49:31.128Z,25.65649
2023-05-17T18:54:32.507Z,27.27114
2023-05-17T18:59:33.923Z,27.47444
2023-05-17T19:04:35.347Z,28.13486
2023-05-17T19:09:36.839Z,27.28226
2023-05-17T19:14:38.232Z,26.86866
2023-05-17T19:19:39.719Z,26.49573
2023-05-17T19:24:41.126Z,27.17775
2023-05-17T19:29:42.581Z,27.00558
2023-05-17T19:34:44.002Z,27.0869
2023-05-17T19:39:45.412Z,27.31434
2023-05-17T19:44:46.853Z,27.32927
2023-05-17T19:49:48.409Z,27.94839
2023-05-17T19:54:49.812Z,27.61739
2023-05-17T19:59:52.303Z,28.35405
2023-05-17T20:04:53.861Z,29.54275
2023-05-17T20:09:55.274Z,28.73937
2023-05-17T20:14:56.641Z,29.09167
2023-05-17T20:19:58.173Z,30.1171
2023-05-17T20:24:59.570Z,30.16793
2023-05-17T20:30:00.972Z,27.90964
2023-05-17T20:35:02.476Z,30.09391
2023-05-17T20:40:03.896Z,29.81118
2023-05-17T20:45:05.323Z,29.88838
2023-05-17T20:50:06.822Z,29.56753
2023-05-17T20:55:08.249Z,29.70095
2023-05-17T21:00:09.647Z,29.63329
2023-05-17T21:05:11.098Z,31.33855
2023-05-17T21:10:12.524Z,31.80331
2023-05-17T21:15:17.034Z,31.13428
2023-05-17T21:20:19.422Z,30.78643
2023-05-17T21:25:21.819Z,32.5346
2023-05-17T21:30:23.315Z,29.30482
2023-05-17T21:35:24.721Z,31.1508
2023-05-17T21:40:26.139Z,31.5479
2023-05-17T21:45:27.550Z,31.12062
2023-05-17T21:50:29.101Z,32.07174
2023-05-17T21:55:36.402Z,31.63494
2023-05-17T22:00:42.611Z,32.82369
2023-05-17T22:05:44.099Z,31.80521
2023-05-17T22:10:45.486Z,31.14318
2023-05-17T22:15:47.067Z,30.883
2023-05-17T22:20:48.594Z,31.64828
2023-05-17T22:25:50.004Z,31.02246
2023-05-17T22:30:51.448Z,30.36869
2023-05-17T22:35:53.600Z,30.99419
2023-05-17T22:40:55.396Z,30.73656
2023-05-17T22:45:56.785Z,31.63653
2023-05-17T22:50:58.269Z,32.23503
2023-05-17T22:55:59.702Z,30.81725
2023-05-17T23:01:01.258Z,31.95897
2023-05-17T23:06:03.071Z,31.70673
2023-05-17T23:11:04.648Z,30.59869
2023-05-17T23:16:06.111Z,33.01303
2023-05-17T23:21:07.540Z,29.97669
2023-05-17T23:26:08.944Z,29.84867
2023-05-17T23:31:10.380Z,31.14286
2023-05-17T23:36:11.809Z,31.29122
2023-05-17T23:41:13.256Z,31.65813
2023-05-17T23:46:14.676Z,31.8624
2023-05-17T23:51:16.116Z,30.76928
2023-05-17T23:56:17.450Z,31.14445
